sensor_id;sensor_type;location;lat;lon;timestamp;temperature;humidity
18163;DHT22;9206;50.994;4.538;2022-08-30T00:00:28;17.20;99.90
18163;DHT22;9206;50.994;4.538;2022-08-30T00:03:16;17.20;99.90
18163;DHT22;9206;50.994;4.538;2022-08-30T00:05:45;17.10;99.90
18163;DHT22;9206;50.994;4.538;2022-08-30T00:08:20;17.20;99.90
18163;DHT22;9206;50.994;4.538;2022-08-30T00:10:47;17.10;99.90
18163;DHT22;9206;50.994;4.538;2022-08-30T00:13:17;17.20;99.90
18163;DHT22;9206;50.994;4.538;2022-08-30T00:15:49;17.20;99.90
18163;DHT22;9206;50.994;4.538;2022-08-30T00:18:18;17.20;99.90
18163;DHT22;9206;50.994;4.538;2022-08-30T00:20:47;17.20;99.90
18163;DHT22;9206;50.994;4.538;2022-08-30T00:23:25;17.20;99.90
18163;DHT22;9206;50.994;4.538;2022-08-30T00:25:53;17.20;99.90
18163;DHT22;9206;50.994;4.538;2022-08-30T00:28:22;17.20;99.90
18163;DHT22;9206;50.994;4.538;2022-08-30T00:30:54;17.20;99.90
18163;DHT22;9206;50.994;4.538;2022-08-30T00:33:22;17.20;99.90
18163;DHT22;9206;50.994;4.538;2022-08-30T00:35:50;17.20;99.90
18163;DHT22;9206;50.994;4.538;2022-08-30T00:38:19;17.20;99.90
18163;DHT22;9206;50.994;4.538;2022-08-30T00:40:53;17.20;99.90
18163;DHT22;9206;50.994;4.538;2022-08-30T00:43:27;17.20;99.90
18163;DHT22;9206;50.994;4.538;2022-08-30T00:45:56;17.10;99.90
18163;DHT22;9206;50.994;4.538;2022-08-30T00:48:26;17.10;99.90
18163;DHT22;9206;50.994;4.538;2022-08-30T00:51:00;17.00;99.90
18163;DHT22;9206;50.994;4.538;2022-08-30T00:53:38;17.00;99.90
18163;DHT22;9206;50.994;4.538;2022-08-30T00:56:07;16.90;99.90
18163;DHT22;9206;50.994;4.538;2022-08-30T00:58:39;16.90;99.90
18163;DHT22;9206;50.994;4.538;2022-08-30T01:01:12;16.90;99.90
18163;DHT22;9206;50.994;4.538;2022-08-30T01:03:46;16.80;99.90
18163;DHT22;9206;50.994;4.538;2022-08-30T01:06:14;16.80;99.90
18163;DHT22;9206;50.994;4.538;2022-08-30T01:08:46;16.70;99.90
18163;DHT22;9206;50.994;4.538;2022-08-30T01:11:19;16.70;99.90
18163;DHT22;9206;50.994;4.538;2022-08-30T01:13:46;16.70;99.90
18163;DHT22;9206;50.994;4.538;2022-08-30T01:16:21;16.70;99.90
18163;DHT22;9206;50.994;4.538;2022-08-30T01:18:51;16.70;99.90
18163;DHT22;9206;50.994;4.538;2022-08-30T01:21:30;16.70;99.90
18163;DHT22;9206;50.994;4.538;2022-08-30T01:24:00;16.70;99.90
18163;DHT22;9206;50.994;4.538;2022-08-30T01:26:30;16.70;99.90
18163;DHT22;9206;50.994;4.538;2022-08-30T01:29:02;16.70;99.90
18163;DHT22;9206;50.994;4.538;2022-08-30T01:31:30;16.70;99.90
18163;DHT22;9206;50.994;4.538;2022-08-30T01:34:06;16.70;99.90
18163;DHT22;9206;50.994;4.538;2022-08-30T01:36:39;16.70;99.90
18163;DHT22;9206;50.994;4.538;2022-08-30T01:39:11;16.60;99.90
18163;DHT22;9206;50.994;4.538;2022-08-30T01:41:42;16.60;99.90
18163;DHT22;9206;50.994;4.538;2022-08-30T01:44:21;16.70;99.90
18163;DHT22;9206;50.994;4.538;2022-08-30T01:46:51;16.70;99.90
18163;DHT22;9206;50.994;4.538;2022-08-30T01:49:19;16.70;99.90
18163;DHT22;9206;50.994;4.538;2022-08-30T01:51:48;16.70;99.90
18163;DHT22;9206;50.994;4.538;2022-08-30T01:54:19;16.70;99.90
18163;DHT22;9206;50.994;4.538;2022-08-30T01:56:46;16.70;99.90
18163;DHT22;9206;50.994;4.538;2022-08-30T01:59:19;16.80;99.90
18163;DHT22;9206;50.994;4.538;2022-08-30T02:02:02;16.80;99.90
18163;DHT22;9206;50.994;4.538;2022-08-30T02:04:29;16.80;99.90
18163;DHT22;9206;50.994;4.538;2022-08-30T02:06:58;16.80;99.90
18163;DHT22;9206;50.994;4.538;2022-08-30T02:09:30;16.70;99.90
18163;DHT22;9206;50.994;4.538;2022-08-30T02:12:04;16.80;99.90
18163;DHT22;9206;50.994;4.538;2022-08-30T02:14:37;16.70;99.90
18163;DHT22;9206;50.994;4.538;2022-08-30T02:17:06;16.60;99.90
18163;DHT22;9206;50.994;4.538;2022-08-30T02:20:03;16.60;99.90
18163;DHT22;9206;50.994;4.538;2022-08-30T02:22:36;16.50;99.90
18163;DHT22;9206;50.994;4.538;2022-08-30T02:25:08;16.40;99.90
18163;DHT22;9206;50.994;4.538;2022-08-30T02:27:41;16.40;99.90
18163;DHT22;9206;50.994;4.538;2022-08-30T02:30:10;16.30;99.90
18163;DHT22;9206;50.994;4.538;2022-08-30T02:32:38;16.30;99.90
18163;DHT22;9206;50.994;4.538;2022-08-30T02:35:09;16.30;99.90
18163;DHT22;9206;50.994;4.538;2022-08-30T02:37:36;16.20;99.90
18163;DHT22;9206;50.994;4.538;2022-08-30T02:40:17;16.10;99.90
18163;DHT22;9206;50.994;4.538;2022-08-30T02:42:46;16.10;99.90
18163;DHT22;9206;50.994;4.538;2022-08-30T02:45:20;16.00;99.90
18163;DHT22;9206;50.994;4.538;2022-08-30T02:47:52;16.00;99.90
18163;DHT22;9206;50.994;4.538;2022-08-30T02:50:24;15.90;99.90
18163;DHT22;9206;50.994;4.538;2022-08-30T02:52:57;15.80;99.90
18163;DHT22;9206;50.994;4.538;2022-08-30T02:55:26;15.80;99.90
18163;DHT22;9206;50.994;4.538;2022-08-30T02:57:54;15.70;99.90
18163;DHT22;9206;50.994;4.538;2022-08-30T03:00:24;15.70;99.90
18163;DHT22;9206;50.994;4.538;2022-08-30T03:03:04;15.70;99.90
18163;DHT22;9206;50.994;4.538;2022-08-30T03:05:32;15.70;99.90
18163;DHT22;9206;50.994;4.538;2022-08-30T03:08:03;15.60;99.90
18163;DHT22;9206;50.994;4.538;2022-08-30T03:10:44;15.60;99.90
18163;DHT22;9206;50.994;4.538;2022-08-30T03:13:24;15.50;99.90
18163;DHT22;9206;50.994;4.538;2022-08-30T03:15:55;15.50;99.90
18163;DHT22;9206;50.994;4.538;2022-08-30T03:18:29;15.40;99.90
18163;DHT22;9206;50.994;4.538;2022-08-30T03:21:02;15.40;99.90
18163;DHT22;9206;50.994;4.538;2022-08-30T03:23:41;15.40;99.90
18163;DHT22;9206;50.994;4.538;2022-08-30T03:26:13;15.40;99.90
18163;DHT22;9206;50.994;4.538;2022-08-30T03:28:41;15.30;99.90
18163;DHT22;9206;50.994;4.538;2022-08-30T03:31:14;15.20;99.90
18163;DHT22;9206;50.994;4.538;2022-08-30T03:33:47;15.20;99.90
18163;DHT22;9206;50.994;4.538;2022-08-30T03:36:17;15.20;99.90
18163;DHT22;9206;50.994;4.538;2022-08-30T03:38:47;15.20;99.90
18163;DHT22;9206;50.994;4.538;2022-08-30T03:41:22;15.20;99.90
18163;DHT22;9206;50.994;4.538;2022-08-30T03:43:56;15.20;99.90
18163;DHT22;9206;50.994;4.538;2022-08-30T03:46:30;15.20;99.90
18163;DHT22;9206;50.994;4.538;2022-08-30T03:49:03;15.20;99.90
18163;DHT22;9206;50.994;4.538;2022-08-30T03:51:30;15.20;99.90
18163;DHT22;9206;50.994;4.538;2022-08-30T03:54:03;15.30;99.90
18163;DHT22;9206;50.994;4.538;2022-08-30T03:56:33;15.40;99.90
18163;DHT22;9206;50.994;4.538;2022-08-30T03:59:06;15.40;99.90
18163;DHT22;9206;50.994;4.538;2022-08-30T04:01:36;15.50;99.90
18163;DHT22;9206;50.994;4.538;2022-08-30T04:04:03;15.50;99.90
18163;DHT22;9206;50.994;4.538;2022-08-30T04:06:31;15.50;99.90
18163;DHT22;9206;50.994;4.538;2022-08-30T04:09:01;15.50;99.90
18163;DHT22;9206;50.994;4.538;2022-08-30T04:11:35;15.50;99.90
18163;DHT22;9206;50.994;4.538;2022-08-30T04:14:04;15.50;99.90
18163;DHT22;9206;50.994;4.538;2022-08-30T04:16:36;15.50;99.90
18163;DHT22;9206;50.994;4.538;2022-08-30T04:19:03;15.50;99.90
18163;DHT22;9206;50.994;4.538;2022-08-30T04:21:31;15.50;99.90
18163;DHT22;9206;50.994;4.538;2022-08-30T04:24:10;15.50;99.90
18163;DHT22;9206;50.994;4.538;2022-08-30T04:26:45;15.50;99.90
18163;DHT22;9206;50.994;4.538;2022-08-30T04:29:12;15.50;99.90
18163;DHT22;9206;50.994;4.538;2022-08-30T04:31:48;15.40;99.90
18163;DHT22;9206;50.994;4.538;2022-08-30T04:34:18;15.40;99.90
18163;DHT22;9206;50.994;4.538;2022-08-30T04:36:48;15.40;99.90
18163;DHT22;9206;50.994;4.538;2022-08-30T04:39:16;15.50;99.90
18163;DHT22;9206;50.994;4.538;2022-08-30T04:41:50;15.50;99.90
18163;DHT22;9206;50.994;4.538;2022-08-30T04:44:18;15.40;99.90
18163;DHT22;9206;50.994;4.538;2022-08-30T04:46:46;15.40;99.90
18163;DHT22;9206;50.994;4.538;2022-08-30T04:49:13;15.40;99.90
18163;DHT22;9206;50.994;4.538;2022-08-30T04:51:40;15.40;99.90
18163;DHT22;9206;50.994;4.538;2022-08-30T04:54:07;15.50;99.90
18163;DHT22;9206;50.994;4.538;2022-08-30T04:56:47;15.50;99.90
18163;DHT22;9206;50.994;4.538;2022-08-30T04:59:21;15.50;99.90
18163;DHT22;9206;50.994;4.538;2022-08-30T05:01:50;15.50;99.90
18163;DHT22;9206;50.994;4.538;2022-08-30T05:04:17;15.50;99.90
18163;DHT22;9206;50.994;4.538;2022-08-30T05:06:47;15.40;99.90
18163;DHT22;9206;50.994;4.538;2022-08-30T05:09:16;15.50;99.90
18163;DHT22;9206;50.994;4.538;2022-08-30T05:11:48;15.50;99.90
18163;DHT22;9206;50.994;4.538;2022-08-30T05:14:15;15.50;99.90
18163;DHT22;9206;50.994;4.538;2022-08-30T05:16:44;15.50;99.90
18163;DHT22;9206;50.994;4.538;2022-08-30T05:19:13;15.60;99.90
18163;DHT22;9206;50.994;4.538;2022-08-30T05:21:40;15.60;99.90
18163;DHT22;9206;50.994;4.538;2022-08-30T05:24:08;15.70;99.90
18163;DHT22;9206;50.994;4.538;2022-08-30T05:26:38;15.60;99.90
18163;DHT22;9206;50.994;4.538;2022-08-30T05:29:05;15.70;99.90
18163;DHT22;9206;50.994;4.538;2022-08-30T05:31:49;15.70;99.90
18163;DHT22;9206;50.994;4.538;2022-08-30T05:34:19;15.80;99.90
18163;DHT22;9206;50.994;4.538;2022-08-30T05:36:48;15.80;99.90
18163;DHT22;9206;50.994;4.538;2022-08-30T05:39:21;15.90;99.90
18163;DHT22;9206;50.994;4.538;2022-08-30T05:41:48;15.90;99.90
18163;DHT22;9206;50.994;4.538;2022-08-30T05:44:18;16.00;99.90
18163;DHT22;9206;50.994;4.538;2022-08-30T05:46:53;16.10;99.90
18163;DHT22;9206;50.994;4.538;2022-08-30T05:49:22;16.20;99.90
18163;DHT22;9206;50.994;4.538;2022-08-30T05:51:55;16.40;99.90
18163;DHT22;9206;50.994;4.538;2022-08-30T05:54:24;16.70;99.90
18163;DHT22;9206;50.994;4.538;2022-08-30T05:57:00;17.00;99.90
18163;DHT22;9206;50.994;4.538;2022-08-30T05:59:29;17.30;99.90
18163;DHT22;9206;50.994;4.538;2022-08-30T06:02:01;17.80;99.90
18163;DHT22;9206;50.994;4.538;2022-08-30T06:04:31;18.40;99.90
18163;DHT22;9206;50.994;4.538;2022-08-30T06:07:06;18.90;99.90
18163;DHT22;9206;50.994;4.538;2022-08-30T06:09:36;19.10;99.90
18163;DHT22;9206;50.994;4.538;2022-08-30T06:12:09;19.40;99.90
18163;DHT22;9206;50.994;4.538;2022-08-30T06:14:42;19.60;99.90
18163;DHT22;9206;50.994;4.538;2022-08-30T06:17:17;19.70;99.90
18163;DHT22;9206;50.994;4.538;2022-08-30T06:19:46;20.00;99.90
18163;DHT22;9206;50.994;4.538;2022-08-30T06:22:17;20.10;99.90
18163;DHT22;9206;50.994;4.538;2022-08-30T06:24:47;20.20;99.90
18163;DHT22;9206;50.994;4.538;2022-08-30T06:27:14;20.20;99.90
18163;DHT22;9206;50.994;4.538;2022-08-30T06:29:42;20.10;99.90
18163;DHT22;9206;50.994;4.538;2022-08-30T06:32:12;20.30;99.90
18163;DHT22;9206;50.994;4.538;2022-08-30T06:34:43;20.50;99.90
18163;DHT22;9206;50.994;4.538;2022-08-30T06:37:10;20.60;99.90
18163;DHT22;9206;50.994;4.538;2022-08-30T06:39:43;20.40;99.90
18163;DHT22;9206;50.994;4.538;2022-08-30T06:42:13;20.30;99.90
18163;DHT22;9206;50.994;4.538;2022-08-30T06:44:40;20.10;99.90
18163;DHT22;9206;50.994;4.538;2022-08-30T06:47:07;20.00;99.90
18163;DHT22;9206;50.994;4.538;2022-08-30T06:49:35;19.90;99.90
18163;DHT22;9206;50.994;4.538;2022-08-30T06:52:04;19.80;99.90
18163;DHT22;9206;50.994;4.538;2022-08-30T06:54:31;19.60;99.90
18163;DHT22;9206;50.994;4.538;2022-08-30T06:57:01;19.70;99.90
18163;DHT22;9206;50.994;4.538;2022-08-30T06:59:31;19.80;99.90
18163;DHT22;9206;50.994;4.538;2022-08-30T07:02:01;20.00;99.90
18163;DHT22;9206;50.994;4.538;2022-08-30T07:04:29;20.20;99.90
18163;DHT22;9206;50.994;4.538;2022-08-30T07:07:04;20.60;99.90
18163;DHT22;9206;50.994;4.538;2022-08-30T07:09:32;20.70;99.90
18163;DHT22;9206;50.994;4.538;2022-08-30T07:12:06;20.90;99.90
18163;DHT22;9206;50.994;4.538;2022-08-30T07:14:42;21.00;99.90
18163;DHT22;9206;50.994;4.538;2022-08-30T07:17:10;21.10;99.90
18163;DHT22;9206;50.994;4.538;2022-08-30T07:19:57;21.20;99.90
18163;DHT22;9206;50.994;4.538;2022-08-30T07:22:33;21.40;99.90
18163;DHT22;9206;50.994;4.538;2022-08-30T07:25:01;21.50;99.90
18163;DHT22;9206;50.994;4.538;2022-08-30T07:27:35;21.60;99.90
18163;DHT22;9206;50.994;4.538;2022-08-30T07:30:03;21.90;99.90
18163;DHT22;9206;50.994;4.538;2022-08-30T07:32:31;22.00;99.90
18163;DHT22;9206;50.994;4.538;2022-08-30T07:34:59;21.90;99.90
18163;DHT22;9206;50.994;4.538;2022-08-30T07:37:29;21.80;99.90
18163;DHT22;9206;50.994;4.538;2022-08-30T07:40:01;21.80;99.90
18163;DHT22;9206;50.994;4.538;2022-08-30T07:42:31;21.80;99.90
18163;DHT22;9206;50.994;4.538;2022-08-30T07:45:05;22.00;99.90
18163;DHT22;9206;50.994;4.538;2022-08-30T07:47:35;22.10;99.90
18163;DHT22;9206;50.994;4.538;2022-08-30T07:50:27;22.10;99.90
18163;DHT22;9206;50.994;4.538;2022-08-30T07:52:56;22.30;99.90
18163;DHT22;9206;50.994;4.538;2022-08-30T07:55:27;22.40;99.90
18163;DHT22;9206;50.994;4.538;2022-08-30T07:57:59;22.50;99.90
18163;DHT22;9206;50.994;4.538;2022-08-30T08:00:32;22.60;99.90
18163;DHT22;9206;50.994;4.538;2022-08-30T08:03:04;22.90;99.90
18163;DHT22;9206;50.994;4.538;2022-08-30T08:05:38;23.10;99.90
18163;DHT22;9206;50.994;4.538;2022-08-30T08:08:08;23.40;99.90
18163;DHT22;9206;50.994;4.538;2022-08-30T08:10:40;24.00;99.90
18163;DHT22;9206;50.994;4.538;2022-08-30T08:13:12;24.90;99.90
18163;DHT22;9206;50.994;4.538;2022-08-30T08:15:39;25.40;99.90
18163;DHT22;9206;50.994;4.538;2022-08-30T08:18:09;25.60;99.90
18163;DHT22;9206;50.994;4.538;2022-08-30T08:20:42;26.00;99.90
18163;DHT22;9206;50.994;4.538;2022-08-30T08:23:10;26.20;99.90
18163;DHT22;9206;50.994;4.538;2022-08-30T08:25:41;26.60;99.90
18163;DHT22;9206;50.994;4.538;2022-08-30T08:28:11;27.00;99.90
18163;DHT22;9206;50.994;4.538;2022-08-30T08:30:40;27.60;99.90
18163;DHT22;9206;50.994;4.538;2022-08-30T08:33:07;28.00;99.90
18163;DHT22;9206;50.994;4.538;2022-08-30T08:35:38;28.40;99.90
18163;DHT22;9206;50.994;4.538;2022-08-30T08:38:11;28.30;99.90
18163;DHT22;9206;50.994;4.538;2022-08-30T08:40:45;29.20;99.90
18163;DHT22;9206;50.994;4.538;2022-08-30T08:43:26;28.90;99.90
18163;DHT22;9206;50.994;4.538;2022-08-30T08:46:04;28.70;99.90
18163;DHT22;9206;50.994;4.538;2022-08-30T08:48:40;29.30;99.90
18163;DHT22;9206;50.994;4.538;2022-08-30T08:51:11;30.00;99.90
18163;DHT22;9206;50.994;4.538;2022-08-30T08:54:02;30.60;99.90
18163;DHT22;9206;50.994;4.538;2022-08-30T08:56:35;30.50;99.90
18163;DHT22;9206;50.994;4.538;2022-08-30T08:59:05;30.60;99.90
18163;DHT22;9206;50.994;4.538;2022-08-30T09:01:35;29.90;99.90
18163;DHT22;9206;50.994;4.538;2022-08-30T09:04:09;29.30;99.90
18163;DHT22;9206;50.994;4.538;2022-08-30T09:06:45;29.70;99.90
18163;DHT22;9206;50.994;4.538;2022-08-30T09:09:20;29.40;99.90
18163;DHT22;9206;50.994;4.538;2022-08-30T09:11:56;29.30;99.90
18163;DHT22;9206;50.994;4.538;2022-08-30T09:14:30;29.70;99.90
18163;DHT22;9206;50.994;4.538;2022-08-30T09:17:10;30.40;99.90
18163;DHT22;9206;50.994;4.538;2022-08-30T09:19:42;31.20;99.90
18163;DHT22;9206;50.994;4.538;2022-08-30T09:22:19;31.40;99.90
18163;DHT22;9206;50.994;4.538;2022-08-30T09:24:49;31.40;99.90
18163;DHT22;9206;50.994;4.538;2022-08-30T09:27:23;31.30;99.90
18163;DHT22;9206;50.994;4.538;2022-08-30T09:29:55;31.60;99.90
18163;DHT22;9206;50.994;4.538;2022-08-30T09:32:31;30.70;99.90
18163;DHT22;9206;50.994;4.538;2022-08-30T09:35:01;30.30;99.90
18163;DHT22;9206;50.994;4.538;2022-08-30T09:37:35;30.00;99.90
18163;DHT22;9206;50.994;4.538;2022-08-30T09:40:12;29.40;99.90
18163;DHT22;9206;50.994;4.538;2022-08-30T09:43:08;29.00;99.90
18163;DHT22;9206;50.994;4.538;2022-08-30T09:45:40;29.40;99.90
18163;DHT22;9206;50.994;4.538;2022-08-30T09:48:29;29.70;99.90
18163;DHT22;9206;50.994;4.538;2022-08-30T09:54:04;30.20;99.90
18163;DHT22;9206;50.994;4.538;2022-08-30T09:56:40;30.50;99.90
18163;DHT22;9206;50.994;4.538;2022-08-30T09:59:20;30.50;99.90
18163;DHT22;9206;50.994;4.538;2022-08-30T10:01:57;30.20;99.90
18163;DHT22;9206;50.994;4.538;2022-08-30T10:04:37;30.50;99.90
18163;DHT22;9206;50.994;4.538;2022-08-30T10:07:27;30.20;99.90
18163;DHT22;9206;50.994;4.538;2022-08-30T10:10:03;29.00;99.90
18163;DHT22;9206;50.994;4.538;2022-08-30T10:12:56;28.90;99.90
18163;DHT22;9206;50.994;4.538;2022-08-30T10:15:38;29.40;99.90
18163;DHT22;9206;50.994;4.538;2022-08-30T10:18:11;29.20;99.90
18163;DHT22;9206;50.994;4.538;2022-08-30T10:20:57;29.00;99.90
18163;DHT22;9206;50.994;4.538;2022-08-30T10:23:31;28.90;99.90
18163;DHT22;9206;50.994;4.538;2022-08-30T10:26:12;28.40;99.90
18163;DHT22;9206;50.994;4.538;2022-08-30T10:28:45;28.60;99.90
18163;DHT22;9206;50.994;4.538;2022-08-30T10:31:24;28.50;99.90
18163;DHT22;9206;50.994;4.538;2022-08-30T10:33:57;28.00;99.90
18163;DHT22;9206;50.994;4.538;2022-08-30T10:36:32;28.70;99.90
18163;DHT22;9206;50.994;4.538;2022-08-30T10:39:02;28.90;99.90
18163;DHT22;9206;50.994;4.538;2022-08-30T10:41:35;29.40;99.90
18163;DHT22;9206;50.994;4.538;2022-08-30T10:44:07;29.50;99.90
18163;DHT22;9206;50.994;4.538;2022-08-30T10:47:03;29.60;99.90
18163;DHT22;9206;50.994;4.538;2022-08-30T10:49:34;29.50;99.90
18163;DHT22;9206;50.994;4.538;2022-08-30T10:52:15;29.70;99.90
18163;DHT22;9206;50.994;4.538;2022-08-30T10:54:49;30.20;99.90
18163;DHT22;9206;50.994;4.538;2022-08-30T10:57:18;30.30;99.90
18163;DHT22;9206;50.994;4.538;2022-08-30T10:59:48;30.30;99.90
18163;DHT22;9206;50.994;4.538;2022-08-30T11:02:46;30.00;99.90
18163;DHT22;9206;50.994;4.538;2022-08-30T11:05:28;29.70;99.90
18163;DHT22;9206;50.994;4.538;2022-08-30T11:08:12;30.20;99.90
18163;DHT22;9206;50.994;4.538;2022-08-30T11:10:55;31.20;99.90
18163;DHT22;9206;50.994;4.538;2022-08-30T11:13:27;31.80;99.90
18163;DHT22;9206;50.994;4.538;2022-08-30T11:16:00;31.30;99.90
18163;DHT22;9206;50.994;4.538;2022-08-30T11:18:40;30.90;99.90
18163;DHT22;9206;50.994;4.538;2022-08-30T11:21:32;31.20;99.90
18163;DHT22;9206;50.994;4.538;2022-08-30T11:24:08;31.40;99.90
18163;DHT22;9206;50.994;4.538;2022-08-30T11:26:59;31.40;99.90
18163;DHT22;9206;50.994;4.538;2022-08-30T11:29:37;31.50;99.90
18163;DHT22;9206;50.994;4.538;2022-08-30T11:32:21;31.30;99.90
18163;DHT22;9206;50.994;4.538;2022-08-30T11:34:59;31.30;99.90
18163;DHT22;9206;50.994;4.538;2022-08-30T11:37:39;30.20;99.90
18163;DHT22;9206;50.994;4.538;2022-08-30T11:40:10;30.00;99.90
18163;DHT22;9206;50.994;4.538;2022-08-30T11:46:15;30.50;99.90
18163;DHT22;9206;50.994;4.538;2022-08-30T11:48:51;31.50;99.90
18163;DHT22;9206;50.994;4.538;2022-08-30T11:51:44;31.80;99.90
18163;DHT22;9206;50.994;4.538;2022-08-30T11:54:29;32.30;99.90
18163;DHT22;9206;50.994;4.538;2022-08-30T11:57:08;32.80;99.90
18163;DHT22;9206;50.994;4.538;2022-08-30T11:59:47;32.40;99.90
18163;DHT22;9206;50.994;4.538;2022-08-30T12:05:46;29.60;99.90
18163;DHT22;9206;50.994;4.538;2022-08-30T12:08:45;29.20;99.90
18163;DHT22;9206;50.994;4.538;2022-08-30T12:14:48;30.20;99.90
18163;DHT22;9206;50.994;4.538;2022-08-30T12:17:31;30.10;99.90
18163;DHT22;9206;50.994;4.538;2022-08-30T12:20:23;30.00;99.90
18163;DHT22;9206;50.994;4.538;2022-08-30T12:22:55;29.70;99.90
18163;DHT22;9206;50.994;4.538;2022-08-30T12:25:28;29.70;99.90
18163;DHT22;9206;50.994;4.538;2022-08-30T12:28:14;29.30;99.90
18163;DHT22;9206;50.994;4.538;2022-08-30T12:30:43;29.50;99.90
18163;DHT22;9206;50.994;4.538;2022-08-30T12:33:15;30.00;99.90
18163;DHT22;9206;50.994;4.538;2022-08-30T12:35:52;30.60;99.90
18163;DHT22;9206;50.994;4.538;2022-08-30T12:38:22;30.60;99.90
18163;DHT22;9206;50.994;4.538;2022-08-30T12:40:53;30.00;99.90
18163;DHT22;9206;50.994;4.538;2022-08-30T12:43:29;29.90;99.90
18163;DHT22;9206;50.994;4.538;2022-08-30T12:46:00;29.80;99.90
18163;DHT22;9206;50.994;4.538;2022-08-30T12:48:33;30.20;99.90
18163;DHT22;9206;50.994;4.538;2022-08-30T12:51:01;30.70;99.90
18163;DHT22;9206;50.994;4.538;2022-08-30T12:53:40;31.20;99.90
18163;DHT22;9206;50.994;4.538;2022-08-30T12:56:17;31.00;99.90
18163;DHT22;9206;50.994;4.538;2022-08-30T12:58:49;30.40;99.90
18163;DHT22;9206;50.994;4.538;2022-08-30T13:01:27;29.60;99.90
18163;DHT22;9206;50.994;4.538;2022-08-30T13:03:59;29.00;99.90
18163;DHT22;9206;50.994;4.538;2022-08-30T13:06:42;28.70;99.90
18163;DHT22;9206;50.994;4.538;2022-08-30T13:09:26;28.40;99.90
18163;DHT22;9206;50.994;4.538;2022-08-30T13:12:00;29.00;99.90
18163;DHT22;9206;50.994;4.538;2022-08-30T13:14:34;29.40;99.90
18163;DHT22;9206;50.994;4.538;2022-08-30T13:17:10;30.10;99.90
18163;DHT22;9206;50.994;4.538;2022-08-30T13:19:45;30.60;99.90
18163;DHT22;9206;50.994;4.538;2022-08-30T13:22:27;30.30;99.90
18163;DHT22;9206;50.994;4.538;2022-08-30T13:25:00;30.50;99.90
18163;DHT22;9206;50.994;4.538;2022-08-30T13:27:37;30.80;99.90
18163;DHT22;9206;50.994;4.538;2022-08-30T13:30:11;30.70;99.90
18163;DHT22;9206;50.994;4.538;2022-08-30T13:32:41;30.20;99.90
18163;DHT22;9206;50.994;4.538;2022-08-30T13:35:10;29.70;99.90
18163;DHT22;9206;50.994;4.538;2022-08-30T13:37:38;29.70;99.90
18163;DHT22;9206;50.994;4.538;2022-08-30T13:40:07;30.30;99.90
18163;DHT22;9206;50.994;4.538;2022-08-30T13:42:39;30.10;99.90
18163;DHT22;9206;50.994;4.538;2022-08-30T13:45:10;29.70;99.90
18163;DHT22;9206;50.994;4.538;2022-08-30T13:47:38;30.10;99.90
18163;DHT22;9206;50.994;4.538;2022-08-30T13:50:07;30.20;99.90
18163;DHT22;9206;50.994;4.538;2022-08-30T13:52:34;30.30;99.90
18163;DHT22;9206;50.994;4.538;2022-08-30T13:55:08;30.20;99.90
18163;DHT22;9206;50.994;4.538;2022-08-30T13:57:35;30.10;99.90
18163;DHT22;9206;50.994;4.538;2022-08-30T14:00:06;29.70;99.90
18163;DHT22;9206;50.994;4.538;2022-08-30T14:02:36;29.40;99.90
18163;DHT22;9206;50.994;4.538;2022-08-30T14:05:08;29.40;99.90
18163;DHT22;9206;50.994;4.538;2022-08-30T14:07:41;29.80;99.90
18163;DHT22;9206;50.994;4.538;2022-08-30T14:10:10;30.10;99.90
18163;DHT22;9206;50.994;4.538;2022-08-30T14:12:39;30.00;99.90
18163;DHT22;9206;50.994;4.538;2022-08-30T14:15:13;30.10;99.90
18163;DHT22;9206;50.994;4.538;2022-08-30T14:17:46;29.70;99.90
18163;DHT22;9206;50.994;4.538;2022-08-30T14:20:16;29.60;99.90
18163;DHT22;9206;50.994;4.538;2022-08-30T14:22:44;29.80;99.90
18163;DHT22;9206;50.994;4.538;2022-08-30T14:25:11;30.10;99.90
18163;DHT22;9206;50.994;4.538;2022-08-30T14:27:39;30.30;99.90
18163;DHT22;9206;50.994;4.538;2022-08-30T14:30:10;30.40;99.90
18163;DHT22;9206;50.994;4.538;2022-08-30T14:32:41;30.20;99.90
18163;DHT22;9206;50.994;4.538;2022-08-30T14:35:08;30.30;99.90
18163;DHT22;9206;50.994;4.538;2022-08-30T14:37:36;30.60;99.90
18163;DHT22;9206;50.994;4.538;2022-08-30T14:40:04;30.60;99.90
18163;DHT22;9206;50.994;4.538;2022-08-30T14:42:33;30.40;99.90
18163;DHT22;9206;50.994;4.538;2022-08-30T14:45:00;30.30;99.90
18163;DHT22;9206;50.994;4.538;2022-08-30T14:47:29;30.20;99.90
18163;DHT22;9206;50.994;4.538;2022-08-30T14:50:04;29.80;99.90
18163;DHT22;9206;50.994;4.538;2022-08-30T14:52:35;29.50;99.90
18163;DHT22;9206;50.994;4.538;2022-08-30T14:55:06;29.10;99.90
18163;DHT22;9206;50.994;4.538;2022-08-30T14:57:35;29.10;99.90
18163;DHT22;9206;50.994;4.538;2022-08-30T15:00:04;29.00;99.90
18163;DHT22;9206;50.994;4.538;2022-08-30T15:02:37;28.90;99.90
18163;DHT22;9206;50.994;4.538;2022-08-30T15:05:19;29.00;99.90
18163;DHT22;9206;50.994;4.538;2022-08-30T15:07:49;29.00;99.90
18163;DHT22;9206;50.994;4.538;2022-08-30T15:10:23;29.20;99.90
18163;DHT22;9206;50.994;4.538;2022-08-30T15:12:56;29.40;99.90
18163;DHT22;9206;50.994;4.538;2022-08-30T15:15:23;29.50;99.90
18163;DHT22;9206;50.994;4.538;2022-08-30T15:17:53;29.50;99.90
18163;DHT22;9206;50.994;4.538;2022-08-30T15:20:27;29.50;99.90
18163;DHT22;9206;50.994;4.538;2022-08-30T15:23:00;29.40;99.90
18163;DHT22;9206;50.994;4.538;2022-08-30T15:25:30;29.30;99.90
18163;DHT22;9206;50.994;4.538;2022-08-30T15:28:03;29.20;99.90
18163;DHT22;9206;50.994;4.538;2022-08-30T15:30:31;29.20;99.90
18163;DHT22;9206;50.994;4.538;2022-08-30T15:33:03;29.00;99.90
18163;DHT22;9206;50.994;4.538;2022-08-30T15:35:38;28.80;99.90
18163;DHT22;9206;50.994;4.538;2022-08-30T15:38:05;28.50;99.90
18163;DHT22;9206;50.994;4.538;2022-08-30T15:40:33;28.30;99.90
18163;DHT22;9206;50.994;4.538;2022-08-30T15:43:09;28.20;99.90
18163;DHT22;9206;50.994;4.538;2022-08-30T15:45:42;28.20;99.90
18163;DHT22;9206;50.994;4.538;2022-08-30T15:48:12;28.30;99.90
18163;DHT22;9206;50.994;4.538;2022-08-30T15:50:41;28.30;99.90
18163;DHT22;9206;50.994;4.538;2022-08-30T15:53:09;28.40;99.90
18163;DHT22;9206;50.994;4.538;2022-08-30T15:55:45;28.40;99.90
18163;DHT22;9206;50.994;4.538;2022-08-30T15:58:16;28.30;99.90
18163;DHT22;9206;50.994;4.538;2022-08-30T16:00:43;28.20;99.90
18163;DHT22;9206;50.994;4.538;2022-08-30T16:03:11;28.10;99.90
18163;DHT22;9206;50.994;4.538;2022-08-30T16:05:43;27.90;99.90
18163;DHT22;9206;50.994;4.538;2022-08-30T16:08:17;27.70;99.90
18163;DHT22;9206;50.994;4.538;2022-08-30T16:10:46;27.60;99.90
18163;DHT22;9206;50.994;4.538;2022-08-30T16:13:19;27.70;99.90
18163;DHT22;9206;50.994;4.538;2022-08-30T16:15:46;27.60;99.90
18163;DHT22;9206;50.994;4.538;2022-08-30T16:18:14;27.30;99.90
18163;DHT22;9206;50.994;4.538;2022-08-30T16:21:01;27.20;99.90
18163;DHT22;9206;50.994;4.538;2022-08-30T16:23:31;27.20;99.90
18163;DHT22;9206;50.994;4.538;2022-08-30T16:25:58;26.90;99.90
18163;DHT22;9206;50.994;4.538;2022-08-30T16:28:25;26.90;99.90
18163;DHT22;9206;50.994;4.538;2022-08-30T16:30:53;26.90;99.90
18163;DHT22;9206;50.994;4.538;2022-08-30T16:33:28;26.80;99.90